Omak, Washington
Current Conditions -  °F | °C
As of 4:53 AM on Saturday 25 Oct 2014 (Local Time) from KOMK Reporting Station
Overcast Overcast  
Wind Chill:   Ceiling: 6000
Heat Index:   Visibility: 10mi
Dew Point:   Wind: 8mph
Humidity: 90%   Direction: 350°N
Pressure: 29.81"   Gusts: NA
Location:  48.41°N, 119.53°W
Report Text: KOMK 251153Z AUTO 35007KT 10SM OVC060 07/06 A2981 RMK AO2 SLP097 60010 70011 T00720056 10078 20067 56037
Loading
Personal Weather Stations






























Interactive Weather Map
Tropical Storm Tracking
New forecast layout! Learn more

10-Day Weather Forecast

Advertisements
Track Severe Weather on mobile